Time;durP1;ratioP1;P1;durP2;ratioP2;P2;SDS_P1;SDS_P2;PMS_P1;PMS_P2;Temp;Humidity;BMP_temperature;BMP_pressure;BME280_temperature;BME280_humidity;BME280_pressure;Samples;Min_cycle;Max_cycle;Signal;HPM_P1;HPM_P2
2021/05/15 00:00:08;;;;;;;2.70;2.60;;;10.80;99.90;;;;;;5026834;28;20290;-76
2021/05/15 00:02:35;;;;;;;3.13;2.87;;;10.80;99.90;;;;;;5026721;28;20220;-76
2021/05/15 00:05:01;;;;;;;2.77;2.57;;;10.80;99.90;;;;;;5026903;28;20217;-76
2021/05/15 00:07:28;;;;;;;3.93;2.80;;;10.70;99.90;;;;;;5026673;28;20790;-75
2021/05/15 00:09:54;;;;;;;2.97;2.70;;;10.70;99.90;;;;;;5026480;28;20213;-75
2021/05/15 00:12:20;;;;;;;2.70;2.50;;;10.70;99.90;;;;;;5026481;28;20209;-75
2021/05/15 00:14:46;;;;;;;3.00;2.70;;;10.70;99.90;;;;;;5026539;28;20204;-76
2021/05/15 00:17:12;;;;;;;2.60;2.50;;;10.70;99.90;;;;;;5026241;28;20209;-76
2021/05/15 00:19:39;;;;;;;3.10;2.90;;;10.70;99.90;;;;;;5026370;28;20229;-75
2021/05/15 00:22:05;;;;;;;3.63;2.97;;;10.70;99.90;;;;;;5025921;28;20213;-76
2021/05/15 00:24:32;;;;;;;3.07;2.87;;;10.70;99.90;;;;;;5025788;28;20659;-75
2021/05/15 00:26:58;;;;;;;2.90;2.80;;;10.70;99.90;;;;;;5026212;28;20236;-75
2021/05/15 00:29:24;;;;;;;3.00;2.80;;;10.60;99.90;;;;;;5026482;28;20216;-75
2021/05/15 00:31:50;;;;;;;2.90;2.70;;;10.60;99.90;;;;;;5026160;28;20248;-76
2021/05/15 00:34:16;;;;;;;5.53;3.10;;;10.60;99.90;;;;;;5026080;28;20276;-75
2021/05/15 00:36:42;;;;;;;3.00;2.80;;;10.60;99.90;;;;;;5025931;28;20858;-75
2021/05/15 00:39:09;;;;;;;2.73;2.53;;;10.60;99.90;;;;;;5025554;28;20714;-76
2021/05/15 00:41:37;;;;;;;4.23;3.00;;;10.50;99.90;;;;;;5026198;28;20211;-75
2021/05/15 00:44:16;;;;;;;2.90;2.70;;;10.50;99.90;;;;;;5026299;28;20265;-76
2021/05/15 00:46:45;;;;;;;3.20;3.00;;;10.50;99.90;;;;;;5025311;28;20279;-76
2021/05/15 00:49:11;;;;;;;2.93;2.73;;;10.50;99.90;;;;;;5026018;28;20213;-76
2021/05/15 00:51:37;;;;;;;2.60;2.50;;;10.40;99.90;;;;;;5025820;28;20212;-75
2021/05/15 00:54:04;;;;;;;3.07;2.87;;;10.40;99.90;;;;;;5026224;28;20201;-76
2021/05/15 00:56:31;;;;;;;3.07;2.87;;;10.40;99.90;;;;;;5025819;28;20215;-76
2021/05/15 00:58:59;;;;;;;3.10;2.30;;;10.40;99.90;;;;;;5026035;28;20262;-76
2021/05/15 01:01:26;;;;;;;2.60;2.50;;;10.50;99.90;;;;;;5025815;28;20258;-76
2021/05/15 01:03:52;;;;;;;3.03;2.67;;;10.40;99.90;;;;;;5025876;28;20208;-75
2021/05/15 01:06:19;;;;;;;2.90;2.70;;;10.40;99.90;;;;;;5025519;28;20659;-75
2021/05/15 01:08:46;;;;;;;2.70;2.50;;;10.40;99.90;;;;;;5025885;28;20209;-76
2021/05/15 01:11:13;;;;;;;3.47;2.60;;;10.40;99.90;;;;;;5025650;28;20216;-76
2021/05/15 01:13:39;;;;;;;2.70;2.60;;;10.50;99.90;;;;;;5025647;28;20237;-75
2021/05/15 01:16:07;;;;;;;2.90;2.70;;;10.40;99.90;;;;;;5025926;28;20265;-75
2021/05/15 01:18:33;;;;;;;3.07;2.70;;;10.30;99.90;;;;;;5025107;28;20225;-75
2021/05/15 01:21:00;;;;;;;2.90;2.70;;;10.30;99.90;;;;;;5025651;28;20237;-76
2021/05/15 01:23:27;;;;;;;3.10;2.87;;;10.30;99.90;;;;;;5025465;28;20204;-76
2021/05/15 01:25:53;;;;;;;2.97;2.73;;;10.30;99.90;;;;;;5025382;28;20208;-75
2021/05/15 01:28:19;;;;;;;3.03;2.83;;;10.30;99.90;;;;;;5025395;28;20213;-76
2021/05/15 01:30:45;;;;;;;2.80;2.50;;;10.30;99.90;;;;;;5025679;28;20205;-75
2021/05/15 01:33:12;;;;;;;3.00;2.80;;;10.30;99.90;;;;;;5025372;28;20208;-76
2021/05/15 01:35:38;;;;;;;3.37;3.10;;;10.30;99.90;;;;;;5025790;28;20204;-76
2021/05/15 01:38:05;;;;;;;2.97;2.70;;;10.20;99.90;;;;;;5025441;28;20209;-76
2021/05/15 01:40:31;;;;;;;3.40;3.10;;;10.30;99.90;;;;;;5025022;28;20256;-76
2021/05/15 01:42:57;;;;;;;2.83;2.70;;;10.30;99.90;;;;;;5025389;28;20289;-76
2021/05/15 01:45:26;;;;;;;2.80;2.60;;;10.30;99.90;;;;;;5024862;28;20693;-75
2021/05/15 01:47:53;;;;;;;3.50;2.67;;;10.30;99.90;;;;;;5025420;28;20209;-75
2021/05/15 01:50:19;;;;;;;3.00;2.80;;;10.20;99.90;;;;;;5025487;28;20205;-76
2021/05/15 01:52:45;;;;;;;3.10;2.90;;;10.20;99.90;;;;;;5025196;28;20744;-75
2021/05/15 01:55:18;;;;;;;3.27;3.00;;;10.20;99.90;;;;;;5025455;28;20312;-75
2021/05/15 01:57:44;;;;;;;2.60;2.50;;;10.20;99.90;;;;;;5027204;28;20201;-75
2021/05/15 02:00:11;;;;;;;3.83;3.10;;;10.20;99.90;;;;;;5028536;28;20272;-76
2021/05/15 02:02:37;;;;;;;2.60;2.40;;;10.20;99.90;;;;;;5028517;28;20201;-76
2021/05/15 02:05:04;;;;;;;2.93;2.73;;;10.20;99.90;;;;;;5028141;28;20587;-75
2021/05/15 02:07:30;;;;;;;2.77;2.67;;;10.20;99.90;;;;;;5028279;28;20213;-75
2021/05/15 02:09:56;;;;;;;2.87;2.50;;;10.20;99.90;;;;;;5028142;28;20600;-76
2021/05/15 02:12:23;;;;;;;3.20;3.00;;;10.20;99.90;;;;;;5028257;28;20209;-75
2021/05/15 02:14:49;;;;;;;2.57;2.47;;;10.20;99.90;;;;;;5027982;28;20675;-76
2021/05/15 02:17:15;;;;;;;2.53;2.43;;;10.30;99.90;;;;;;5028167;28;20269;-76
2021/05/15 02:19:41;;;;;;;2.70;2.50;;;10.20;99.90;;;;;;5028273;28;20873;-75
2021/05/15 02:22:07;;;;;;;3.10;2.80;;;10.20;99.90;;;;;;5028485;28;20216;-76
2021/05/15 02:24:33;;;;;;;2.40;2.30;;;10.20;99.90;;;;;;5028308;28;20650;-75
2021/05/15 02:26:59;;;;;;;3.20;2.63;;;10.20;99.90;;;;;;5028413;28;20244;-75
2021/05/15 02:29:26;;;;;;;2.60;2.40;;;10.20;99.90;;;;;;5027814;28;21006;-75
2021/05/15 02:31:52;;;;;;;2.70;2.47;;;10.10;99.90;;;;;;5027974;28;20225;-75
2021/05/15 02:34:18;;;;;;;2.37;2.17;;;10.10;99.90;;;;;;5027935;28;20201;-75
2021/05/15 02:36:44;;;;;;;2.53;2.30;;;10.10;99.90;;;;;;5028177;28;20209;-75
2021/05/15 02:39:11;;;;;;;2.33;2.13;;;10.10;99.90;;;;;;5027348;28;20757;-75
2021/05/15 02:41:37;;;;;;;2.60;2.20;;;10.10;99.90;;;;;;5027527;28;20799;-75
2021/05/15 02:44:03;;;;;;;2.60;2.40;;;10.10;99.90;;;;;;5027538;28;20667;-75
2021/05/15 02:46:30;;;;;;;2.63;2.50;;;10.20;99.90;;;;;;5027598;28;20659;-75
2021/05/15 02:48:56;;;;;;;2.40;2.30;;;10.10;99.90;;;;;;5027711;28;20258;-75
2021/05/15 02:51:23;;;;;;;2.60;2.50;;;10.10;99.90;;;;;;5027764;28;20289;-75
2021/05/15 02:53:49;;;;;;;2.40;2.30;;;10.10;99.90;;;;;;5027835;27;20208;-75
2021/05/15 02:56:15;;;;;;;3.17;1.97;;;10.10;99.90;;;;;;5027407;28;20243;-76
2021/05/15 02:58:41;;;;;;;2.67;2.47;;;10.10;99.90;;;;;;5027727;28;20216;-76
2021/05/15 03:01:07;;;;;;;2.50;2.30;;;10.10;99.90;;;;;;5027392;28;20608;-75
2021/05/15 03:03:34;;;;;;;2.40;2.30;;;10.00;99.90;;;;;;5027026;28;20205;-75
2021/05/15 03:06:00;;;;;;;2.97;2.10;;;10.00;99.90;;;;;;5027670;28;20212;-75
2021/05/15 03:08:26;;;;;;;2.60;2.50;;;10.00;99.90;;;;;;5026398;28;20261;-76
2021/05/15 03:10:53;;;;;;;2.70;2.40;;;9.90;99.90;;;;;;5027529;28;20213;-75
2021/05/15 03:13:20;;;;;;;2.50;2.40;;;9.90;99.90;;;;;;5027194;28;20587;-77
2021/05/15 03:15:46;;;;;;;2.87;2.67;;;9.90;99.90;;;;;;5027505;28;20209;-76
2021/05/15 03:18:12;;;;;;;4.70;3.60;;;9.90;99.90;;;;;;5027522;28;20237;-76
2021/05/15 03:20:39;;;;;;;3.30;3.10;;;9.90;99.90;;;;;;5026599;28;20694;-76
2021/05/15 03:23:05;;;;;;;3.80;3.10;;;9.90;99.90;;;;;;5027068;28;20205;-77
2021/05/15 03:25:31;;;;;;;2.63;2.43;;;9.90;99.90;;;;;;5027067;28;20666;-76
2021/05/15 03:27:57;;;;;;;2.43;2.33;;;9.80;99.90;;;;;;5027514;28;20643;-77
2021/05/15 03:30:23;;;;;;;2.63;2.50;;;9.80;99.90;;;;;;5027147;28;20258;-76
2021/05/15 03:32:49;;;;;;;2.83;2.63;;;9.80;99.90;;;;;;5027237;28;20242;-77
2021/05/15 03:35:17;;;;;;;3.33;2.60;;;9.80;99.90;;;;;;5027126;28;20278;-76
2021/05/15 03:37:44;;;;;;;2.47;2.37;;;9.90;99.90;;;;;;5027316;28;20211;-76
2021/05/15 03:40:12;;;;;;;3.60;2.30;;;9.90;99.90;;;;;;5026723;28;20252;-76
2021/05/15 03:42:38;;;;;;;4.20;2.57;;;9.90;99.90;;;;;;5026731;28;20557;-76
2021/05/15 03:45:07;;;;;;;2.57;2.37;;;9.90;99.90;;;;;;5026813;28;20209;-76
2021/05/15 03:47:33;;;;;;;3.77;2.57;;;9.90;99.90;;;;;;5027017;28;20215;-75
2021/05/15 03:49:59;;;;;;;2.63;2.23;;;9.90;99.90;;;;;;5026786;28;20217;-75
2021/05/15 03:52:25;;;;;;;2.50;2.30;;;10.00;99.90;;;;;;5026742;28;20200;-75
2021/05/15 03:54:52;;;;;;;2.70;2.40;;;10.00;99.90;;;;;;5026934;28;20213;-75
2021/05/15 03:57:18;;;;;;;2.77;2.60;;;10.00;99.90;;;;;;5026532;28;20231;-75
2021/05/15 03:59:44;;;;;;;2.50;2.30;;;10.00;99.90;;;;;;5026655;28;20239;-75
2021/05/15 04:02:11;;;;;;;2.97;2.37;;;10.00;99.90;;;;;;5026946;28;20232;-75
2021/05/15 04:04:37;;;;;;;2.97;2.40;;;9.90;99.90;;;;;;5026695;28;20209;-75
2021/05/15 04:07:03;;;;;;;2.77;2.63;;;10.00;99.90;;;;;;5026925;28;20212;-75
2021/05/15 04:09:29;;;;;;;3.03;2.80;;;10.00;99.90;;;;;;5026656;28;20554;-75
2021/05/15 04:11:57;;;;;;;2.90;2.70;;;10.00;99.90;;;;;;5026293;28;20719;-75
2021/05/15 04:14:30;;;;;;;3.10;2.80;;;10.00;99.90;;;;;;5026612;28;20205;-75
2021/05/15 04:17:15;;;;;;;2.77;2.57;;;10.10;99.90;;;;;;5026333;28;20205;-75
2021/05/15 04:19:41;;;;;;;2.70;2.50;;;10.10;99.90;;;;;;5026371;28;20273;-75
2021/05/15 04:22:07;;;;;;;2.63;2.43;;;10.10;99.90;;;;;;5026684;28;20246;-74
2021/05/15 04:24:33;;;;;;;2.60;2.40;;;10.10;99.90;;;;;;5026532;28;20201;-75
2021/05/15 04:27:03;;;;;;;2.53;2.40;;;10.10;99.90;;;;;;5026548;28;20236;-75
2021/05/15 04:29:30;;;;;;;2.50;2.37;;;10.10;99.90;;;;;;5027392;28;20273;-75
2021/05/15 04:31:58;;;;;;;2.80;2.70;;;10.10;99.90;;;;;;5026413;28;20273;-74
2021/05/15 04:34:25;;;;;;;2.83;2.43;;;10.10;99.90;;;;;;5026259;28;20212;-75
2021/05/15 04:36:51;;;;;;;2.70;2.50;;;10.10;99.90;;;;;;5026580;28;20204;-75
2021/05/15 04:39:18;;;;;;;2.83;2.50;;;10.20;99.90;;;;;;5026115;28;20586;-75
2021/05/15 04:41:44;;;;;;;2.67;2.50;;;10.20;99.90;;;;;;5026141;28;20257;-75
2021/05/15 04:44:11;;;;;;;2.90;2.70;;;10.20;99.90;;;;;;5026486;28;20569;-75
2021/05/15 04:46:37;;;;;;;2.40;2.30;;;10.20;99.90;;;;;;5026314;28;20208;-74
2021/05/15 04:49:03;;;;;;;2.40;2.23;;;10.20;99.90;;;;;;5026056;28;20240;-75
2021/05/15 04:51:30;;;;;;;2.80;2.47;;;10.20;99.90;;;;;;5025814;28;20209;-75
2021/05/15 04:53:56;;;;;;;2.70;2.50;;;10.20;99.90;;;;;;5026244;28;20260;-75
2021/05/15 04:56:22;;;;;;;2.70;2.60;;;10.20;99.90;;;;;;5025826;28;20212;-75
2021/05/15 04:58:48;;;;;;;3.17;2.70;;;10.30;99.90;;;;;;5026026;28;20244;-75
2021/05/15 05:01:15;;;;;;;3.30;3.10;;;10.30;99.90;;;;;;5025937;28;20240;-75
2021/05/15 05:03:41;;;;;;;3.00;2.80;;;10.30;99.90;;;;;;5025924;28;20216;-75
2021/05/15 05:06:07;;;;;;;3.17;2.97;;;10.30;99.90;;;;;;5025930;28;20209;-74
2021/05/15 05:08:33;;;;;;;3.83;3.53;;;10.40;99.90;;;;;;5025495;28;20205;-76
2021/05/15 05:10:59;;;;;;;4.40;4.00;;;10.40;99.90;;;;;;5025780;28;20213;-75
2021/05/15 05:13:25;;;;;;;3.83;3.60;;;10.50;99.90;;;;;;5025659;28;20213;-74
2021/05/15 05:15:51;;;;;;;4.90;4.60;;;10.50;99.90;;;;;;5025843;28;20216;-75
2021/05/15 05:18:18;;;;;;;4.43;4.13;;;10.60;99.90;;;;;;5025523;28;20280;-75
2021/05/15 05:20:45;;;;;;;5.50;4.97;;;10.60;99.90;;;;;;5025517;28;20263;-75
2021/05/15 05:23:11;;;;;;;5.27;4.87;;;10.70;99.90;;;;;;5025283;28;20681;-75
2021/05/15 05:25:37;;;;;;;4.93;4.60;;;10.70;99.90;;;;;;5025382;28;20201;-74
2021/05/15 05:28:04;;;;;;;6.30;5.77;;;10.70;99.90;;;;;;5025607;28;20208;-75
2021/05/15 05:30:30;;;;;;;6.07;5.10;;;10.70;99.90;;;;;;5025313;28;20621;-75
2021/05/15 05:32:56;;;;;;;5.90;5.43;;;10.80;99.90;;;;;;5027539;28;20216;-75
2021/05/15 05:35:23;;;;;;;6.13;5.63;;;10.80;99.90;;;;;;5029118;28;20216;-75
2021/05/15 05:37:49;;;;;;;6.10;5.43;;;10.80;99.90;;;;;;5029226;28;20247;-75
2021/05/15 05:40:16;;;;;;;5.90;5.50;;;10.80;99.90;;;;;;5028980;28;20273;-75
2021/05/15 05:42:44;;;;;;;5.80;5.40;;;10.80;99.90;;;;;;5028764;28;20205;-75
2021/05/15 05:45:12;;;;;;;6.37;5.70;;;10.90;99.90;;;;;;5028724;28;20209;-75
2021/05/15 05:47:38;;;;;;;6.90;6.23;;;10.90;99.90;;;;;;5028809;28;20205;-75
2021/05/15 05:50:06;;;;;;;6.37;5.87;;;10.90;99.90;;;;;;5028638;28;20209;-75
2021/05/15 05:52:33;;;;;;;6.27;5.77;;;11.00;99.90;;;;;;5028847;28;20209;-75
2021/05/15 05:54:59;;;;;;;6.97;6.47;;;11.00;99.90;;;;;;5028383;28;20738;-75
2021/05/15 05:57:25;;;;;;;7.50;6.73;;;11.00;99.90;;;;;;5028448;28;20216;-75
2021/05/15 05:59:51;;;;;;;7.87;7.17;;;11.00;99.90;;;;;;5028493;28;20252;-75
2021/05/15 06:02:17;;;;;;;8.90;8.00;;;11.00;99.90;;;;;;5028427;28;20265;-75
2021/05/15 06:04:43;;;;;;;9.27;8.10;;;11.00;99.90;;;;;;5028369;28;20252;-75
2021/05/15 06:07:10;;;;;;;8.60;7.27;;;11.00;99.90;;;;;;5028705;28;20574;-74
2021/05/15 06:09:36;;;;;;;8.27;7.57;;;11.10;99.90;;;;;;5027832;28;20663;-75
2021/05/15 06:12:03;;;;;;;8.20;7.50;;;11.10;99.90;;;;;;5027881;28;20201;-75
2021/05/15 06:14:29;;;;;;;8.80;8.00;;;11.10;99.90;;;;;;5027678;28;20236;-75
2021/05/15 06:16:55;;;;;;;7.83;7.23;;;11.10;99.90;;;;;;5027948;28;20241;-75
2021/05/15 06:19:21;;;;;;;7.67;7.07;;;11.10;99.90;;;;;;5028124;28;20205;-75
2021/05/15 06:21:47;;;;;;;7.57;6.93;;;11.20;99.90;;;;;;5028174;28;20237;-75
2021/05/15 06:24:13;;;;;;;7.40;6.70;;;11.20;99.90;;;;;;5028036;28;20205;-75
2021/05/15 06:26:40;;;;;;;7.10;6.40;;;11.30;99.90;;;;;;5028089;28;20205;-74
2021/05/15 06:29:06;;;;;;;10.77;6.50;;;11.30;99.90;;;;;;5028117;28;20209;-75
2021/05/15 06:31:33;;;;;;;7.07;6.03;;;11.30;99.90;;;;;;5027888;28;20221;-75
2021/05/15 06:33:59;;;;;;;6.47;5.97;;;11.30;99.90;;;;;;5028224;28;20213;-75
2021/05/15 06:36:25;;;;;;;5.70;5.40;;;11.40;99.90;;;;;;5027636;28;20759;-75
2021/05/15 06:38:51;;;;;;;7.67;5.77;;;11.40;99.90;;;;;;5027802;28;20294;-75
2021/05/15 06:41:17;;;;;;;5.60;5.20;;;11.50;99.90;;;;;;5027764;28;20233;-75
2021/05/15 06:43:44;;;;;;;5.23;4.73;;;11.50;99.90;;;;;;5027547;28;20677;-75
2021/05/15 06:46:10;;;;;;;5.20;4.73;;;11.60;99.90;;;;;;5027921;28;20208;-74
2021/05/15 06:48:36;;;;;;;5.43;5.03;;;11.60;99.90;;;;;;5027946;28;20245;-75
2021/05/15 06:51:03;;;;;;;5.33;4.93;;;11.60;99.90;;;;;;5027703;28;20288;-75
2021/05/15 06:53:29;;;;;;;5.03;4.60;;;11.70;99.90;;;;;;5027804;28;20239;-75
2021/05/15 06:55:55;;;;;;;5.00;4.70;;;11.70;99.90;;;;;;5027709;28;20216;-74
2021/05/15 06:58:21;;;;;;;4.50;4.20;;;11.80;99.90;;;;;;5027714;28;20216;-75
2021/05/15 07:00:48;;;;;;;4.80;4.43;;;11.90;99.90;;;;;;5027392;28;20236;-75
2021/05/15 07:03:14;;;;;;;4.83;4.53;;;12.00;99.90;;;;;;5027411;28;20659;-75
2021/05/15 07:05:40;;;;;;;4.50;4.20;;;12.00;99.90;;;;;;5027505;28;20368;-75
2021/05/15 07:08:06;;;;;;;4.40;4.10;;;12.00;99.90;;;;;;5027295;28;20646;-75
2021/05/15 07:10:32;;;;;;;4.33;3.93;;;12.00;99.90;;;;;;5027281;28;20278;-75
2021/05/15 07:12:58;;;;;;;4.53;4.23;;;12.00;99.90;;;;;;5027395;28;20209;-75
2021/05/15 07:15:25;;;;;;;4.40;4.10;;;12.00;99.90;;;;;;5027373;28;20236;-74
2021/05/15 07:17:52;;;;;;;5.17;4.53;;;12.10;99.90;;;;;;5027351;28;20225;-75
2021/05/15 07:20:18;;;;;;;4.53;4.13;;;12.10;99.90;;;;;;5027572;28;20224;-74
2021/05/15 07:22:45;;;;;;;5.20;4.80;;;12.10;99.90;;;;;;5027018;28;20662;-75
2021/05/15 07:25:12;;;;;;;5.73;5.33;;;12.10;99.90;;;;;;5027640;28;20205;-75
2021/05/15 07:27:39;;;;;;;6.17;5.63;;;12.10;99.90;;;;;;5027272;28;20257;-75
2021/05/15 07:30:07;;;;;;;6.37;5.77;;;12.20;99.90;;;;;;5027502;28;20205;-75
2021/05/15 07:32:33;;;;;;;6.30;5.90;;;12.20;99.90;;;;;;5027032;28;20219;-75
2021/05/15 07:35:00;;;;;;;6.57;6.07;;;12.20;99.90;;;;;;5027158;28;20266;-75
2021/05/15 07:37:26;;;;;;;6.13;5.67;;;12.30;99.90;;;;;;5027052;28;20697;-75
2021/05/15 07:39:52;;;;;;;6.90;6.30;;;12.30;99.90;;;;;;5026451;28;20291;-75
2021/05/15 07:42:18;;;;;;;6.90;6.00;;;12.30;99.90;;;;;;5026923;28;20205;-75
2021/05/15 07:44:45;;;;;;;6.53;5.97;;;12.40;99.90;;;;;;5026638;28;20213;-75
2021/05/15 07:47:12;;;;;;;6.90;6.40;;;12.40;99.90;;;;;;5026949;28;20578;-75
2021/05/15 07:49:38;;;;;;;6.07;5.63;;;12.50;99.90;;;;;;5026897;28;20290;-75
2021/05/15 07:52:05;;;;;;;6.83;6.10;;;12.50;99.90;;;;;;5026336;28;20204;-75
2021/05/15 07:54:31;;;;;;;6.20;5.70;;;12.60;99.90;;;;;;5025830;28;20805;-75
2021/05/15 07:56:57;;;;;;;6.57;6.10;;;12.60;99.90;;;;;;5026912;28;20204;-75
2021/05/15 07:59:23;;;;;;;6.73;6.13;;;12.70;99.90;;;;;;5026811;28;20209;-75
2021/05/15 08:01:49;;;;;;;6.60;6.10;;;12.70;99.90;;;;;;5026295;28;20601;-75
2021/05/15 08:04:15;;;;;;;6.63;6.17;;;12.80;99.90;;;;;;5026821;28;20270;-75
2021/05/15 08:06:42;;;;;;;6.70;6.20;;;12.80;99.90;;;;;;5026918;28;20209;-75
2021/05/15 08:09:09;;;;;;;7.03;6.53;;;12.90;99.90;;;;;;5026689;28;20205;-75
2021/05/15 08:11:36;;;;;;;8.43;7.03;;;13.00;99.90;;;;;;5026193;28;20307;-74
2021/05/15 08:14:04;;;;;;;9.37;8.47;;;13.10;99.90;;;;;;5026657;28;20209;-75
2021/05/15 08:16:32;;;;;;;9.13;8.43;;;13.20;99.90;;;;;;5026193;28;20640;-75
2021/05/15 08:18:59;;;;;;;7.37;6.87;;;13.20;99.90;;;;;;5026604;28;20229;-74
2021/05/15 08:21:25;;;;;;;7.63;7.03;;;13.30;99.90;;;;;;5026337;28;20225;-75
2021/05/15 08:23:51;;;;;;;7.03;6.40;;;13.30;99.90;;;;;;5026173;28;20209;-75
2021/05/15 08:26:18;;;;;;;7.40;6.80;;;13.40;99.90;;;;;;5026330;28;20213;-75
2021/05/15 08:28:48;;;;;;;6.77;6.27;;;13.40;99.90;;;;;;5026400;28;20205;-75
2021/05/15 08:31:15;;;;;;;7.87;6.97;;;13.50;99.90;;;;;;5026256;28;20250;-75
2021/05/15 08:33:41;;;;;;;6.80;6.30;;;13.50;99.90;;;;;;5026146;28;20208;-75
2021/05/15 08:36:08;;;;;;;7.93;7.30;;;13.60;99.90;;;;;;5026052;28;20244;-75
2021/05/15 08:38:34;;;;;;;8.17;6.83;;;13.60;99.90;;;;;;5025742;28;20619;-74
2021/05/15 08:41:00;;;;;;;6.67;6.13;;;13.60;99.90;;;;;;5026024;28;20312;-75
2021/05/15 08:43:28;;;;;;;6.67;6.07;;;13.70;99.90;;;;;;5025940;28;20205;-75
2021/05/15 08:45:57;;;;;;;6.50;6.00;;;13.80;99.90;;;;;;5026122;28;20208;-75
2021/05/15 08:48:24;;;;;;;6.80;6.23;;;13.90;99.90;;;;;;5026102;28;20666;-75
2021/05/15 08:50:51;;;;;;;6.97;6.30;;;13.90;99.90;;;;;;5026160;28;20235;-75
2021/05/15 08:53:18;;;;;;;7.10;6.23;;;14.00;99.90;;;;;;5025794;28;20694;-75
2021/05/15 08:55:44;;;;;;;6.40;5.90;;;14.10;99.90;;;;;;5026203;28;20213;-75
2021/05/15 08:58:10;;;;;;;6.50;6.10;;;14.20;99.90;;;;;;5025988;28;20239;-75
2021/05/15 09:00:41;;;;;;;6.73;6.13;;;14.30;99.90;;;;;;5025924;28;20232;-76
2021/05/15 09:03:10;;;;;;;6.93;6.53;;;14.40;99.90;;;;;;5026143;28;20205;-75
2021/05/15 09:05:39;;;;;;;6.13;5.63;;;14.50;99.90;;;;;;5025578;28;20201;-75
2021/05/15 09:08:09;;;;;;;7.33;6.80;;;14.60;99.90;;;;;;5025157;28;20212;-76
2021/05/15 09:10:38;;;;;;;6.23;5.83;;;14.80;99.90;;;;;;5025756;28;20635;-75
2021/05/15 09:13:09;;;;;;;6.57;6.07;;;14.90;99.90;;;;;;5025630;28;20205;-76
2021/05/15 09:15:38;;;;;;;5.97;5.57;;;15.00;99.90;;;;;;5025718;28;20270;-75
2021/05/15 09:18:04;;;;;;;6.27;5.77;;;15.10;99.90;;;;;;5025839;28;20244;-76
2021/05/15 09:20:33;;;;;;;5.73;5.23;;;15.10;99.90;;;;;;5025765;28;20235;-75
2021/05/15 09:23:11;;;;;;;5.83;5.43;;;15.30;99.90;;;;;;5025751;28;20244;-75
2021/05/15 09:25:37;;;;;;;6.87;6.27;;;15.30;99.90;;;;;;5025254;28;20222;-76
2021/05/15 09:28:03;;;;;;;6.57;6.17;;;15.30;99.90;;;;;;5025427;28;20851;-76
2021/05/15 09:30:30;;;;;;;6.07;5.60;;;15.30;99.90;;;;;;5025729;28;20217;-76
2021/05/15 09:32:57;;;;;;;5.33;4.83;;;15.30;99.90;;;;;;5025630;28;20204;-76
2021/05/15 09:35:25;;;;;;;5.80;5.40;;;15.30;99.90;;;;;;5025413;28;20261;-76
2021/05/15 09:37:52;;;;;;;6.27;5.67;;;15.20;99.90;;;;;;5025660;28;20253;-76
2021/05/15 09:40:20;;;;;;;6.13;5.70;;;15.10;99.90;;;;;;5025133;28;20702;-76
2021/05/15 09:42:50;;;;;;;5.57;5.17;;;15.10;99.90;;;;;;5025523;28;20205;-75
2021/05/15 09:45:21;;;;;;;5.93;5.53;;;15.00;99.90;;;;;;5025320;28;20647;-75
2021/05/15 09:47:55;;;;;;;6.13;5.73;;;14.90;99.90;;;;;;5025319;28;20252;-75
2021/05/15 09:50:28;;;;;;;6.10;5.60;;;14.80;99.90;;;;;;5024619;28;20229;-74
2021/05/15 09:53:09;;;;;;;6.03;5.53;;;14.70;99.90;;;;;;5025034;28;20230;-75
2021/05/15 09:55:37;;;;;;;6.40;5.57;;;14.70;99.90;;;;;;5025231;28;20197;-75
2021/05/15 09:58:05;;;;;;;6.40;5.70;;;14.90;99.90;;;;;;5025191;28;20216;-75
2021/05/15 10:00:40;;;;;;;5.67;5.33;;;15.10;99.90;;;;;;5025458;28;20264;-75
2021/05/15 10:03:16;;;;;;;6.67;6.17;;;15.30;99.90;;;;;;5025262;28;20600;-75
2021/05/15 10:05:43;;;;;;;5.27;4.97;;;15.40;99.90;;;;;;5025315;28;20254;-75
2021/05/15 10:08:09;;;;;;;5.57;5.10;;;15.70;99.90;;;;;;5024892;28;20216;-75
2021/05/15 10:10:36;;;;;;;5.10;4.80;;;15.80;99.90;;;;;;5025177;28;20223;-75
2021/05/15 10:13:03;;;;;;;5.73;5.30;;;16.00;99.90;;;;;;5025008;28;20209;-75
2021/05/15 10:15:29;;;;;;;6.00;5.40;;;16.10;99.90;;;;;;5024685;28;20205;-75
2021/05/15 10:17:57;;;;;;;6.37;4.90;;;16.20;99.90;;;;;;5025505;28;20289;-75
2021/05/15 10:20:23;;;;;;;4.87;4.53;;;16.10;99.90;;;;;;5028325;28;20234;-75
2021/05/15 10:22:50;;;;;;;5.40;4.90;;;16.10;99.90;;;;;;5027737;28;20697;-75
2021/05/15 10:25:17;;;;;;;4.20;3.90;;;16.10;99.90;;;;;;5028072;28;20232;-75
2021/05/15 10:27:43;;;;;;;4.53;4.07;;;16.10;99.90;;;;;;5027896;28;20213;-75
2021/05/15 10:30:17;;;;;;;4.10;3.80;;;16.10;99.90;;;;;;5028444;28;20293;-75
2021/05/15 10:32:54;;;;;;;4.00;3.80;;;16.00;99.90;;;;;;5028020;28;20197;-75
2021/05/15 10:35:29;;;;;;;4.43;4.03;;;16.00;99.90;;;;;;5028135;28;20208;-75
2021/05/15 10:38:05;;;;;;;3.20;3.10;;;15.80;99.90;;;;;;5027957;28;20211;-75
2021/05/15 10:40:46;;;;;;;3.67;3.47;;;15.80;99.90;;;;;;5027844;28;20289;-75
2021/05/15 10:43:12;;;;;;;3.23;3.10;;;15.70;99.90;;;;;;5027894;28;20711;-75
2021/05/15 10:45:40;;;;;;;3.03;2.83;;;15.60;99.90;;;;;;5028109;28;20205;-75
2021/05/15 10:48:21;;;;;;;2.33;2.23;;;15.60;99.90;;;;;;5027919;28;20212;-75
2021/05/15 10:50:50;;;;;;;2.60;2.40;;;15.60;99.90;;;;;;5027846;28;20205;-75
2021/05/15 10:53:24;;;;;;;2.30;2.10;;;15.80;99.90;;;;;;5027983;28;20205;-75
2021/05/15 10:56:02;;;;;;;1.67;1.57;;;15.70;99.90;;;;;;5028461;28;20216;-76
2021/05/15 10:58:48;;;;;;;1.90;1.50;;;15.70;99.90;;;;;;5027961;28;20211;-75
2021/05/15 11:01:16;;;;;;;1.60;1.00;;;15.70;99.90;;;;;;5027722;28;20220;-75
2021/05/15 11:03:43;;;;;;;1.50;1.10;;;15.90;99.90;;;;;;5027965;28;20208;-75
2021/05/15 11:06:15;;;;;;;1.17;1.00;;;16.00;99.90;;;;;;5027713;28;20205;-76
2021/05/15 11:08:42;;;;;;;1.60;0.97;;;16.10;99.90;;;;;;5027614;28;20209;-75
2021/05/15 11:11:11;;;;;;;1.10;1.00;;;16.10;99.90;;;;;;5027528;28;20212;-75
2021/05/15 11:13:48;;;;;;;0.77;0.70;;;16.10;99.90;;;;;;5027852;28;20205;-75
2021/05/15 11:16:14;;;;;;;2.47;0.80;;;16.20;99.90;;;;;;5027705;28;20200;-75
2021/05/15 11:18:40;;;;;;;3.47;0.80;;;16.20;99.90;;;;;;5027519;28;20228;-75
2021/05/15 11:21:07;;;;;;;1.23;0.70;;;16.00;99.90;;;;;;5027717;28;20588;-75
2021/05/15 11:23:36;;;;;;;2.57;0.93;;;15.90;99.90;;;;;;5027702;28;20213;-75
2021/05/15 11:26:06;;;;;;;1.47;0.67;;;15.30;99.90;;;;;;5027425;28;20205;-75
2021/05/15 11:28:33;;;;;;;0.93;0.80;;;14.90;99.90;;;;;;5027448;28;20198;-76
2021/05/15 11:31:00;;;;;;;0.73;0.60;;;14.60;99.90;;;;;;5026528;28;20273;-75
2021/05/15 11:33:27;;;;;;;1.87;0.60;;;14.60;99.90;;;;;;5027698;28;20255;-75
2021/05/15 11:35:56;;;;;;;0.50;0.50;;;14.50;99.90;;;;;;5027178;28;20583;-76
2021/05/15 11:38:23;;;;;;;0.87;0.60;;;14.70;99.90;;;;;;5026979;28;20667;-75
2021/05/15 11:40:54;;;;;;;2.00;0.30;;;15.00;99.90;;;;;;5027175;28;20292;-75
2021/05/15 11:43:23;;;;;;;0.70;0.47;;;15.20;99.90;;;;;;5027337;28;20200;-75
2021/05/15 11:45:51;;;;;;;0.63;0.50;;;15.50;99.90;;;;;;5026930;28;20257;-75
2021/05/15 11:48:22;;;;;;;1.57;0.40;;;15.90;99.90;;;;;;5027386;28;20216;-75
2021/05/15 11:51:02;;;;;;;2.40;0.60;;;16.30;99.90;;;;;;5026968;28;20208;-75
2021/05/15 11:53:29;;;;;;;1.97;0.30;;;16.70;99.90;;;;;;5027124;28;20209;-75
2021/05/15 11:55:55;;;;;;;0.50;0.50;;;17.00;99.90;;;;;;5026850;28;20254;-75
2021/05/15 11:58:23;;;;;;;0.40;0.40;;;17.30;99.90;;;;;;5026829;28;20213;-75
2021/05/15 12:00:49;;;;;;;0.40;0.40;;;17.60;99.90;;;;;;5026487;28;20229;-75
2021/05/15 12:03:20;;;;;;;0.43;0.40;;;17.90;99.90;;;;;;5026517;28;20285;-75
2021/05/15 12:05:46;;;;;;;0.50;0.50;;;18.10;99.90;;;;;;5026450;28;20197;-75
2021/05/15 12:08:13;;;;;;;0.57;0.53;;;18.30;99.90;;;;;;5026425;28;20205;-75
2021/05/15 12:10:40;;;;;;;1.13;0.73;;;18.40;99.90;;;;;;5026722;28;20216;-75
2021/05/15 12:13:07;;;;;;;0.77;0.67;;;18.30;99.90;;;;;;5026310;28;20220;-75
2021/05/15 12:15:37;;;;;;;0.77;0.63;;;18.40;99.90;;;;;;5026671;28;20208;-75
2021/05/15 12:18:03;;;;;;;0.70;0.70;;;18.50;99.90;;;;;;5026568;28;20236;-75
2021/05/15 12:20:32;;;;;;;1.33;0.60;;;18.80;99.90;;;;;;5026656;28;20256;-75
2021/05/15 12:23:12;;;;;;;1.67;0.57;;;18.60;99.90;;;;;;5026333;28;20269;-75
2021/05/15 12:25:41;;;;;;;0.97;0.57;;;18.60;99.90;;;;;;5026591;28;20189;-74
2021/05/15 12:28:21;;;;;;;2.33;0.57;;;18.80;99.90;;;;;;5026228;28;20274;-75
2021/05/15 12:30:49;;;;;;;0.83;0.73;;;19.10;99.90;;;;;;5025949;28;20658;-76
2021/05/15 12:33:19;;;;;;;2.10;0.50;;;19.30;99.90;;;;;;5026417;28;20211;-75
2021/05/15 12:35:59;;;;;;;0.80;0.60;;;19.50;99.90;;;;;;5026345;28;20205;-75
2021/05/15 12:38:26;;;;;;;0.77;0.50;;;19.70;99.90;;;;;;5026228;28;20193;-75
2021/05/15 12:40:53;;;;;;;0.37;0.37;;;19.80;99.90;;;;;;5025833;28;20746;-75
2021/05/15 12:43:22;;;;;;;2.40;0.60;;;20.00;99.90;;;;;;5026163;28;20610;-76
2021/05/15 12:45:51;;;;;;;0.60;0.60;;;20.10;99.90;;;;;;5026421;28;20209;-75
2021/05/15 12:48:21;;;;;;;1.90;0.60;;;20.10;99.90;;;;;;5026190;28;20213;-76